sensor_id;sensor_type;location;lat;lon;timestamp;temperature;humidity
10129;DHT22;5104;50.720;7.044;2022-12-11T00:01:18;0.90;99.90
10129;DHT22;5104;50.720;7.044;2022-12-11T00:03:46;0.90;99.90
10129;DHT22;5104;50.720;7.044;2022-12-11T00:06:14;0.90;99.90
10129;DHT22;5104;50.720;7.044;2022-12-11T00:08:42;0.90;99.90
10129;DHT22;5104;50.720;7.044;2022-12-11T00:11:12;0.90;99.90
10129;DHT22;5104;50.720;7.044;2022-12-11T00:13:39;0.80;99.90
10129;DHT22;5104;50.720;7.044;2022-12-11T00:16:06;0.80;99.90
10129;DHT22;5104;50.720;7.044;2022-12-11T00:18:34;0.80;99.90
10129;DHT22;5104;50.720;7.044;2022-12-11T00:21:01;0.80;99.90
10129;DHT22;5104;50.720;7.044;2022-12-11T00:23:28;0.80;99.90
10129;DHT22;5104;50.720;7.044;2022-12-11T00:25:55;0.80;99.90
10129;DHT22;5104;50.720;7.044;2022-12-11T00:28:23;0.80;99.90
10129;DHT22;5104;50.720;7.044;2022-12-11T00:30:52;0.80;99.90
10129;DHT22;5104;50.720;7.044;2022-12-11T00:33:19;0.80;99.90
10129;DHT22;5104;50.720;7.044;2022-12-11T00:35:49;0.90;99.90
10129;DHT22;5104;50.720;7.044;2022-12-11T00:38:19;0.90;99.90
10129;DHT22;5104;50.720;7.044;2022-12-11T00:40:49;1.00;99.90
10129;DHT22;5104;50.720;7.044;2022-12-11T00:43:16;1.00;99.90
10129;DHT22;5104;50.720;7.044;2022-12-11T00:45:46;1.00;99.90
10129;DHT22;5104;50.720;7.044;2022-12-11T00:48:13;1.00;99.90
10129;DHT22;5104;50.720;7.044;2022-12-11T00:50:41;1.00;99.90
10129;DHT22;5104;50.720;7.044;2022-12-11T00:53:08;1.10;99.90
10129;DHT22;5104;50.720;7.044;2022-12-11T00:55:39;1.10;99.90
10129;DHT22;5104;50.720;7.044;2022-12-11T00:58:06;1.10;99.90
10129;DHT22;5104;50.720;7.044;2022-12-11T01:00:34;1.10;99.90
10129;DHT22;5104;50.720;7.044;2022-12-11T01:03:03;1.10;99.90
10129;DHT22;5104;50.720;7.044;2022-12-11T01:05:31;1.10;99.90
10129;DHT22;5104;50.720;7.044;2022-12-11T01:07:58;1.10;99.90
10129;DHT22;5104;50.720;7.044;2022-12-11T01:10:25;1.10;99.90
10129;DHT22;5104;50.720;7.044;2022-12-11T01:12:52;1.20;99.90
10129;DHT22;5104;50.720;7.044;2022-12-11T01:15:21;1.20;99.90
10129;DHT22;5104;50.720;7.044;2022-12-11T01:17:49;1.20;99.90
10129;DHT22;5104;50.720;7.044;2022-12-11T01:20:18;1.20;99.90
10129;DHT22;5104;50.720;7.044;2022-12-11T01:22:45;1.20;99.90
10129;DHT22;5104;50.720;7.044;2022-12-11T01:25:12;1.20;99.90
10129;DHT22;5104;50.720;7.044;2022-12-11T01:27:39;1.20;99.90
10129;DHT22;5104;50.720;7.044;2022-12-11T01:30:07;1.20;99.90
10129;DHT22;5104;50.720;7.044;2022-12-11T01:32:35;1.20;99.90
10129;DHT22;5104;50.720;7.044;2022-12-11T01:35:02;1.30;99.90
10129;DHT22;5104;50.720;7.044;2022-12-11T01:37:31;1.20;99.90
10129;DHT22;5104;50.720;7.044;2022-12-11T01:39:58;1.30;99.90
10129;DHT22;5104;50.720;7.044;2022-12-11T01:42:26;1.30;99.90
10129;DHT22;5104;50.720;7.044;2022-12-11T01:45:28;1.30;99.90
10129;DHT22;5104;50.720;7.044;2022-12-11T01:48:00;1.40;99.90
10129;DHT22;5104;50.720;7.044;2022-12-11T01:50:28;1.40;99.90
10129;DHT22;5104;50.720;7.044;2022-12-11T01:52:58;1.40;99.90
10129;DHT22;5104;50.720;7.044;2022-12-11T01:55:26;1.40;99.90
10129;DHT22;5104;50.720;7.044;2022-12-11T01:57:53;1.40;99.90
10129;DHT22;5104;50.720;7.044;2022-12-11T02:00:21;1.30;99.90
10129;DHT22;5104;50.720;7.044;2022-12-11T02:02:47;1.20;99.90
10129;DHT22;5104;50.720;7.044;2022-12-11T02:05:14;1.30;99.90
10129;DHT22;5104;50.720;7.044;2022-12-11T02:07:44;1.30;99.90
10129;DHT22;5104;50.720;7.044;2022-12-11T02:10:13;1.40;99.90
10129;DHT22;5104;50.720;7.044;2022-12-11T02:12:48;1.40;99.90
10129;DHT22;5104;50.720;7.044;2022-12-11T02:15:24;1.40;99.90
10129;DHT22;5104;50.720;7.044;2022-12-11T02:17:59;1.40;99.90
10129;DHT22;5104;50.720;7.044;2022-12-11T02:20:33;1.30;99.90
10129;DHT22;5104;50.720;7.044;2022-12-11T02:23:31;1.30;99.90
10129;DHT22;5104;50.720;7.044;2022-12-11T02:26:11;1.40;99.90
10129;DHT22;5104;50.720;7.044;2022-12-11T02:28:48;1.40;99.90
10129;DHT22;5104;50.720;7.044;2022-12-11T02:31:23;1.50;99.90
10129;DHT22;5104;50.720;7.044;2022-12-11T02:33:58;1.50;99.90
10129;DHT22;5104;50.720;7.044;2022-12-11T02:36:29;1.50;99.90
10129;DHT22;5104;50.720;7.044;2022-12-11T02:38:58;1.40;99.90
10129;DHT22;5104;50.720;7.044;2022-12-11T02:41:28;1.40;99.90
10129;DHT22;5104;50.720;7.044;2022-12-11T02:43:57;1.40;99.90
10129;DHT22;5104;50.720;7.044;2022-12-11T02:46:25;1.40;99.90
10129;DHT22;5104;50.720;7.044;2022-12-11T02:48:53;1.40;99.90
10129;DHT22;5104;50.720;7.044;2022-12-11T02:51:24;1.40;99.90
10129;DHT22;5104;50.720;7.044;2022-12-11T02:53:55;1.40;99.90
10129;DHT22;5104;50.720;7.044;2022-12-11T02:56:25;1.40;99.90
10129;DHT22;5104;50.720;7.044;2022-12-11T02:59:00;1.40;99.90
10129;DHT22;5104;50.720;7.044;2022-12-11T03:01:30;1.40;99.90
10129;DHT22;5104;50.720;7.044;2022-12-11T03:03:57;1.30;99.90
10129;DHT22;5104;50.720;7.044;2022-12-11T03:06:28;1.30;99.90
10129;DHT22;5104;50.720;7.044;2022-12-11T03:08:57;1.30;99.90
10129;DHT22;5104;50.720;7.044;2022-12-11T03:11:24;1.30;99.90
10129;DHT22;5104;50.720;7.044;2022-12-11T03:13:51;1.40;99.90
10129;DHT22;5104;50.720;7.044;2022-12-11T03:16:25;1.40;99.90
10129;DHT22;5104;50.720;7.044;2022-12-11T03:19:01;1.40;99.90
10129;DHT22;5104;50.720;7.044;2022-12-11T03:21:34;1.40;99.90
10129;DHT22;5104;50.720;7.044;2022-12-11T03:24:07;1.30;99.90
10129;DHT22;5104;50.720;7.044;2022-12-11T03:26:39;1.30;99.90
10129;DHT22;5104;50.720;7.044;2022-12-11T03:29:13;1.30;99.90
10129;DHT22;5104;50.720;7.044;2022-12-11T03:31:44;1.40;99.90
10129;DHT22;5104;50.720;7.044;2022-12-11T03:34:15;1.30;99.90
10129;DHT22;5104;50.720;7.044;2022-12-11T03:36:44;1.30;99.90
10129;DHT22;5104;50.720;7.044;2022-12-11T03:39:15;1.30;99.90
10129;DHT22;5104;50.720;7.044;2022-12-11T03:41:45;1.30;99.90
10129;DHT22;5104;50.720;7.044;2022-12-11T03:44:15;1.30;99.90
10129;DHT22;5104;50.720;7.044;2022-12-11T03:46:45;1.30;99.90
10129;DHT22;5104;50.720;7.044;2022-12-11T03:49:16;1.30;99.90
10129;DHT22;5104;50.720;7.044;2022-12-11T03:51:45;1.30;99.90
10129;DHT22;5104;50.720;7.044;2022-12-11T03:54:13;1.30;99.90
10129;DHT22;5104;50.720;7.044;2022-12-11T03:56:42;1.30;99.90
10129;DHT22;5104;50.720;7.044;2022-12-11T03:59:10;1.30;99.90
10129;DHT22;5104;50.720;7.044;2022-12-11T04:01:37;1.30;99.90
10129;DHT22;5104;50.720;7.044;2022-12-11T04:04:05;1.30;99.90
10129;DHT22;5104;50.720;7.044;2022-12-11T04:06:32;1.40;99.90
10129;DHT22;5104;50.720;7.044;2022-12-11T04:08:59;1.40;99.90
10129;DHT22;5104;50.720;7.044;2022-12-11T04:11:26;1.30;99.90
10129;DHT22;5104;50.720;7.044;2022-12-11T04:14:03;1.30;99.90
10129;DHT22;5104;50.720;7.044;2022-12-11T04:16:47;1.30;99.90
10129;DHT22;5104;50.720;7.044;2022-12-11T04:19:16;1.30;99.90
10129;DHT22;5104;50.720;7.044;2022-12-11T04:22:00;1.30;99.90
10129;DHT22;5104;50.720;7.044;2022-12-11T04:24:53;1.40;99.90
10129;DHT22;5104;50.720;7.044;2022-12-11T04:27:20;1.40;99.90
10129;DHT22;5104;50.720;7.044;2022-12-11T04:30:02;1.40;99.90
10129;DHT22;5104;50.720;7.044;2022-12-11T04:32:29;1.40;99.90
10129;DHT22;5104;50.720;7.044;2022-12-11T04:34:57;1.40;99.90
10129;DHT22;5104;50.720;7.044;2022-12-11T04:37:25;1.30;99.90
10129;DHT22;5104;50.720;7.044;2022-12-11T04:39:52;1.30;99.90
10129;DHT22;5104;50.720;7.044;2022-12-11T04:42:19;1.30;99.90
10129;DHT22;5104;50.720;7.044;2022-12-11T04:44:46;1.30;99.90
10129;DHT22;5104;50.720;7.044;2022-12-11T04:47:13;1.30;99.90
10129;DHT22;5104;50.720;7.044;2022-12-11T04:49:42;1.30;99.90
10129;DHT22;5104;50.720;7.044;2022-12-11T04:52:10;1.40;99.90
10129;DHT22;5104;50.720;7.044;2022-12-11T04:54:37;1.40;99.90
10129;DHT22;5104;50.720;7.044;2022-12-11T04:57:04;1.40;99.90
10129;DHT22;5104;50.720;7.044;2022-12-11T04:59:31;1.40;99.90
10129;DHT22;5104;50.720;7.044;2022-12-11T05:01:58;1.30;99.90
10129;DHT22;5104;50.720;7.044;2022-12-11T05:04:27;1.30;99.90
10129;DHT22;5104;50.720;7.044;2022-12-11T05:06:56;1.30;99.90
10129;DHT22;5104;50.720;7.044;2022-12-11T05:09:24;1.30;99.90
10129;DHT22;5104;50.720;7.044;2022-12-11T05:11:51;1.30;99.90
10129;DHT22;5104;50.720;7.044;2022-12-11T05:14:18;1.30;99.90
10129;DHT22;5104;50.720;7.044;2022-12-11T05:16:46;1.30;99.90
10129;DHT22;5104;50.720;7.044;2022-12-11T05:19:13;1.20;99.90
10129;DHT22;5104;50.720;7.044;2022-12-11T05:21:39;1.30;99.90
10129;DHT22;5104;50.720;7.044;2022-12-11T05:24:07;1.30;99.90
10129;DHT22;5104;50.720;7.044;2022-12-11T05:26:35;1.30;99.90
10129;DHT22;5104;50.720;7.044;2022-12-11T05:29:02;1.30;99.90
10129;DHT22;5104;50.720;7.044;2022-12-11T05:31:30;1.30;99.90
10129;DHT22;5104;50.720;7.044;2022-12-11T05:33:56;1.30;99.90
10129;DHT22;5104;50.720;7.044;2022-12-11T05:36:25;1.30;99.90
10129;DHT22;5104;50.720;7.044;2022-12-11T05:38:53;1.30;99.90
10129;DHT22;5104;50.720;7.044;2022-12-11T05:41:21;1.30;99.90
10129;DHT22;5104;50.720;7.044;2022-12-11T05:43:50;1.30;99.90
10129;DHT22;5104;50.720;7.044;2022-12-11T05:46:19;1.30;99.90
10129;DHT22;5104;50.720;7.044;2022-12-11T05:48:49;1.30;99.90
10129;DHT22;5104;50.720;7.044;2022-12-11T05:51:17;1.30;99.90
10129;DHT22;5104;50.720;7.044;2022-12-11T05:53:45;1.30;99.90
10129;DHT22;5104;50.720;7.044;2022-12-11T05:56:14;1.30;99.90
10129;DHT22;5104;50.720;7.044;2022-12-11T05:58:42;1.40;99.90
10129;DHT22;5104;50.720;7.044;2022-12-11T06:01:14;1.30;99.90
10129;DHT22;5104;50.720;7.044;2022-12-11T06:03:41;1.30;99.90
10129;DHT22;5104;50.720;7.044;2022-12-11T06:06:08;1.30;99.90
10129;DHT22;5104;50.720;7.044;2022-12-11T06:08:35;1.30;99.90
10129;DHT22;5104;50.720;7.044;2022-12-11T06:11:02;1.30;99.90
10129;DHT22;5104;50.720;7.044;2022-12-11T06:13:29;1.30;99.90
10129;DHT22;5104;50.720;7.044;2022-12-11T06:15:59;1.30;99.90
10129;DHT22;5104;50.720;7.044;2022-12-11T06:18:28;1.30;99.90
10129;DHT22;5104;50.720;7.044;2022-12-11T06:20:55;1.40;99.90
10129;DHT22;5104;50.720;7.044;2022-12-11T06:23:21;1.30;99.90
10129;DHT22;5104;50.720;7.044;2022-12-11T06:25:48;1.30;99.90
10129;DHT22;5104;50.720;7.044;2022-12-11T06:28:15;1.30;99.90
10129;DHT22;5104;50.720;7.044;2022-12-11T06:30:42;1.20;99.90
10129;DHT22;5104;50.720;7.044;2022-12-11T06:33:09;1.30;99.90
10129;DHT22;5104;50.720;7.044;2022-12-11T06:35:37;1.30;99.90
10129;DHT22;5104;50.720;7.044;2022-12-11T06:38:04;1.30;99.90
10129;DHT22;5104;50.720;7.044;2022-12-11T06:40:31;1.30;99.90
10129;DHT22;5104;50.720;7.044;2022-12-11T06:42:58;1.30;99.90
10129;DHT22;5104;50.720;7.044;2022-12-11T06:45:24;1.20;99.90
10129;DHT22;5104;50.720;7.044;2022-12-11T06:47:51;1.30;99.90
10129;DHT22;5104;50.720;7.044;2022-12-11T06:50:18;1.30;99.90
10129;DHT22;5104;50.720;7.044;2022-12-11T06:52:46;1.20;99.90
10129;DHT22;5104;50.720;7.044;2022-12-11T06:55:13;1.20;99.90
10129;DHT22;5104;50.720;7.044;2022-12-11T06:57:40;1.20;99.90
10129;DHT22;5104;50.720;7.044;2022-12-11T07:00:08;1.10;99.90
10129;DHT22;5104;50.720;7.044;2022-12-11T07:02:35;1.10;99.90
10129;DHT22;5104;50.720;7.044;2022-12-11T07:05:02;1.00;99.90
10129;DHT22;5104;50.720;7.044;2022-12-11T07:07:29;1.10;99.90
10129;DHT22;5104;50.720;7.044;2022-12-11T07:09:57;1.20;99.90
10129;DHT22;5104;50.720;7.044;2022-12-11T07:12:24;1.30;99.90
10129;DHT22;5104;50.720;7.044;2022-12-11T07:14:51;1.30;99.90
10129;DHT22;5104;50.720;7.044;2022-12-11T07:17:17;1.20;99.90
10129;DHT22;5104;50.720;7.044;2022-12-11T07:19:44;1.20;99.90
10129;DHT22;5104;50.720;7.044;2022-12-11T07:22:11;1.30;99.90
10129;DHT22;5104;50.720;7.044;2022-12-11T07:24:38;1.30;99.90
10129;DHT22;5104;50.720;7.044;2022-12-11T07:27:06;1.30;99.90
10129;DHT22;5104;50.720;7.044;2022-12-11T07:29:35;1.40;99.90
10129;DHT22;5104;50.720;7.044;2022-12-11T07:32:02;1.30;99.90
10129;DHT22;5104;50.720;7.044;2022-12-11T07:34:29;1.40;99.90
10129;DHT22;5104;50.720;7.044;2022-12-11T07:36:56;1.40;99.90
10129;DHT22;5104;50.720;7.044;2022-12-11T07:39:24;1.40;99.90
10129;DHT22;5104;50.720;7.044;2022-12-11T07:41:51;1.30;99.90
10129;DHT22;5104;50.720;7.044;2022-12-11T07:44:19;1.30;99.90
10129;DHT22;5104;50.720;7.044;2022-12-11T07:46:46;1.30;99.90
10129;DHT22;5104;50.720;7.044;2022-12-11T07:49:13;1.30;99.90
10129;DHT22;5104;50.720;7.044;2022-12-11T07:51:41;1.30;99.90
10129;DHT22;5104;50.720;7.044;2022-12-11T07:54:11;1.30;99.90
10129;DHT22;5104;50.720;7.044;2022-12-11T07:56:41;1.30;99.90
10129;DHT22;5104;50.720;7.044;2022-12-11T07:59:08;1.30;99.90
10129;DHT22;5104;50.720;7.044;2022-12-11T08:01:37;1.30;99.90
10129;DHT22;5104;50.720;7.044;2022-12-11T08:04:06;1.40;99.90
10129;DHT22;5104;50.720;7.044;2022-12-11T08:06:35;1.40;99.90
10129;DHT22;5104;50.720;7.044;2022-12-11T08:09:05;1.40;99.90
10129;DHT22;5104;50.720;7.044;2022-12-11T08:11:32;1.30;99.90
10129;DHT22;5104;50.720;7.044;2022-12-11T08:13:59;1.30;99.90
10129;DHT22;5104;50.720;7.044;2022-12-11T08:16:27;1.20;99.90
10129;DHT22;5104;50.720;7.044;2022-12-11T08:18:57;1.20;99.90
10129;DHT22;5104;50.720;7.044;2022-12-11T08:21:25;1.20;99.90
10129;DHT22;5104;50.720;7.044;2022-12-11T08:23:53;1.10;99.90
10129;DHT22;5104;50.720;7.044;2022-12-11T08:26:21;1.10;99.90
10129;DHT22;5104;50.720;7.044;2022-12-11T08:28:48;1.00;99.90
10129;DHT22;5104;50.720;7.044;2022-12-11T08:31:16;1.10;99.90
10129;DHT22;5104;50.720;7.044;2022-12-11T08:33:43;1.10;99.90
10129;DHT22;5104;50.720;7.044;2022-12-11T08:36:13;1.20;99.90
10129;DHT22;5104;50.720;7.044;2022-12-11T08:38:41;1.20;99.90
10129;DHT22;5104;50.720;7.044;2022-12-11T08:41:08;1.30;99.90
10129;DHT22;5104;50.720;7.044;2022-12-11T08:43:35;1.40;99.90
10129;DHT22;5104;50.720;7.044;2022-12-11T08:46:02;1.40;99.90
10129;DHT22;5104;50.720;7.044;2022-12-11T08:48:29;1.50;99.90
10129;DHT22;5104;50.720;7.044;2022-12-11T08:50:58;1.50;99.90
10129;DHT22;5104;50.720;7.044;2022-12-11T08:53:27;1.60;99.90
10129;DHT22;5104;50.720;7.044;2022-12-11T08:55:54;1.60;99.90
10129;DHT22;5104;50.720;7.044;2022-12-11T08:58:25;1.60;99.90
10129;DHT22;5104;50.720;7.044;2022-12-11T09:00:52;1.50;99.90
10129;DHT22;5104;50.720;7.044;2022-12-11T09:03:19;1.50;99.90
10129;DHT22;5104;50.720;7.044;2022-12-11T09:05:46;1.50;99.90
10129;DHT22;5104;50.720;7.044;2022-12-11T09:08:13;1.50;99.90
10129;DHT22;5104;50.720;7.044;2022-12-11T09:10:41;1.60;99.90
10129;DHT22;5104;50.720;7.044;2022-12-11T09:13:08;1.60;99.90
10129;DHT22;5104;50.720;7.044;2022-12-11T09:15:35;1.70;99.90
10129;DHT22;5104;50.720;7.044;2022-12-11T09:18:05;1.80;99.90
10129;DHT22;5104;50.720;7.044;2022-12-11T09:20:32;1.70;99.90
10129;DHT22;5104;50.720;7.044;2022-12-11T09:22:59;1.80;99.90
10129;DHT22;5104;50.720;7.044;2022-12-11T09:25:26;1.80;99.90
10129;DHT22;5104;50.720;7.044;2022-12-11T09:27:54;1.80;99.90
10129;DHT22;5104;50.720;7.044;2022-12-11T09:30:21;1.70;99.90
10129;DHT22;5104;50.720;7.044;2022-12-11T09:32:48;1.80;99.90
10129;DHT22;5104;50.720;7.044;2022-12-11T09:35:23;1.80;99.90
10129;DHT22;5104;50.720;7.044;2022-12-11T09:37:49;2.00;99.90
10129;DHT22;5104;50.720;7.044;2022-12-11T09:40:16;1.90;99.90
10129;DHT22;5104;50.720;7.044;2022-12-11T09:42:49;1.90;99.90
10129;DHT22;5104;50.720;7.044;2022-12-11T09:45:19;2.00;99.90
10129;DHT22;5104;50.720;7.044;2022-12-11T09:47:48;2.00;99.90
10129;DHT22;5104;50.720;7.044;2022-12-11T09:50:21;2.10;99.90
10129;DHT22;5104;50.720;7.044;2022-12-11T09:52:59;2.10;99.90
10129;DHT22;5104;50.720;7.044;2022-12-11T09:55:34;2.10;99.90
10129;DHT22;5104;50.720;7.044;2022-12-11T09:58:12;2.20;99.90
10129;DHT22;5104;50.720;7.044;2022-12-11T10:00:46;2.10;99.90
10129;DHT22;5104;50.720;7.044;2022-12-11T10:06:18;2.40;99.90
10129;DHT22;5104;50.720;7.044;2022-12-11T10:08:53;2.40;99.90
10129;DHT22;5104;50.720;7.044;2022-12-11T10:11:39;2.50;99.90
10129;DHT22;5104;50.720;7.044;2022-12-11T10:14:15;2.50;99.90
10129;DHT22;5104;50.720;7.044;2022-12-11T10:16:50;2.50;99.90
10129;DHT22;5104;50.720;7.044;2022-12-11T10:19:19;2.50;99.90
10129;DHT22;5104;50.720;7.044;2022-12-11T10:21:48;2.50;99.90
10129;DHT22;5104;50.720;7.044;2022-12-11T10:24:21;2.50;99.90
10129;DHT22;5104;50.720;7.044;2022-12-11T10:26:54;2.60;99.90
10129;DHT22;5104;50.720;7.044;2022-12-11T10:29:22;2.60;99.90
10129;DHT22;5104;50.720;7.044;2022-12-11T10:31:55;2.70;99.90
10129;DHT22;5104;50.720;7.044;2022-12-11T10:34:28;2.90;99.90
10129;DHT22;5104;50.720;7.044;2022-12-11T10:36:59;2.90;99.90
10129;DHT22;5104;50.720;7.044;2022-12-11T10:39:26;2.90;99.90
10129;DHT22;5104;50.720;7.044;2022-12-11T10:41:54;2.80;99.90
10129;DHT22;5104;50.720;7.044;2022-12-11T10:44:22;2.90;99.90
10129;DHT22;5104;50.720;7.044;2022-12-11T10:47:02;2.90;99.90
10129;DHT22;5104;50.720;7.044;2022-12-11T10:49:32;3.10;99.90
10129;DHT22;5104;50.720;7.044;2022-12-11T10:52:00;3.10;99.70
10129;DHT22;5104;50.720;7.044;2022-12-11T10:54:32;3.00;99.90
10129;DHT22;5104;50.720;7.044;2022-12-11T10:57:01;2.80;99.90
10129;DHT22;5104;50.720;7.044;2022-12-11T10:59:33;2.90;99.90
10129;DHT22;5104;50.720;7.044;2022-12-11T11:02:04;2.90;99.90
10129;DHT22;5104;50.720;7.044;2022-12-11T11:04:34;3.00;99.90
10129;DHT22;5104;50.720;7.044;2022-12-11T11:07:10;3.10;99.20
10129;DHT22;5104;50.720;7.044;2022-12-11T11:09:38;3.10;96.70
10129;DHT22;5104;50.720;7.044;2022-12-11T11:12:17;2.90;99.90
10129;DHT22;5104;50.720;7.044;2022-12-11T11:14:45;3.00;99.90
10129;DHT22;5104;50.720;7.044;2022-12-11T11:17:15;2.90;99.80
10129;DHT22;5104;50.720;7.044;2022-12-11T11:19:45;3.00;98.40
10129;DHT22;5104;50.720;7.044;2022-12-11T11:22:16;3.10;99.00
10129;DHT22;5104;50.720;7.044;2022-12-11T11:24:44;3.10;95.90
10129;DHT22;5104;50.720;7.044;2022-12-11T11:27:18;3.00;96.70
10129;DHT22;5104;50.720;7.044;2022-12-11T11:29:51;3.20;96.70
10129;DHT22;5104;50.720;7.044;2022-12-11T11:32:23;3.10;93.10
10129;DHT22;5104;50.720;7.044;2022-12-11T11:34:50;2.80;98.50
10129;DHT22;5104;50.720;7.044;2022-12-11T11:37:26;2.50;99.90
10129;DHT22;5104;50.720;7.044;2022-12-11T11:40:00;2.20;99.90
10129;DHT22;5104;50.720;7.044;2022-12-11T11:42:40;2.20;99.90
10129;DHT22;5104;50.720;7.044;2022-12-11T11:45:13;2.40;99.90
10129;DHT22;5104;50.720;7.044;2022-12-11T11:47:49;2.40;99.90
10129;DHT22;5104;50.720;7.044;2022-12-11T11:50:21;2.60;99.90
10129;DHT22;5104;50.720;7.044;2022-12-11T11:52:56;2.90;99.90
10129;DHT22;5104;50.720;7.044;2022-12-11T11:55:36;2.90;94.50
10129;DHT22;5104;50.720;7.044;2022-12-11T11:58:08;3.00;96.00
10129;DHT22;5104;50.720;7.044;2022-12-11T12:00:38;3.10;95.00
10129;DHT22;5104;50.720;7.044;2022-12-11T12:03:09;3.10;93.70
10129;DHT22;5104;50.720;7.044;2022-12-11T12:05:42;2.90;91.20
10129;DHT22;5104;50.720;7.044;2022-12-11T12:08:14;3.00;93.60
10129;DHT22;5104;50.720;7.044;2022-12-11T12:10:47;2.90;94.30
10129;DHT22;5104;50.720;7.044;2022-12-11T12:13:24;3.00;93.00
10129;DHT22;5104;50.720;7.044;2022-12-11T12:15:56;3.20;93.90
10129;DHT22;5104;50.720;7.044;2022-12-11T12:18:33;3.20;93.00
10129;DHT22;5104;50.720;7.044;2022-12-11T12:21:14;3.30;92.10
10129;DHT22;5104;50.720;7.044;2022-12-11T12:24:03;3.40;91.40
10129;DHT22;5104;50.720;7.044;2022-12-11T12:26:34;3.40;90.30
10129;DHT22;5104;50.720;7.044;2022-12-11T12:29:13;3.30;92.30
10129;DHT22;5104;50.720;7.044;2022-12-11T12:31:54;3.00;95.80
10129;DHT22;5104;50.720;7.044;2022-12-11T12:34:38;2.80;93.60
10129;DHT22;5104;50.720;7.044;2022-12-11T12:37:14;2.80;95.30
10129;DHT22;5104;50.720;7.044;2022-12-11T12:39:50;3.10;96.30
10129;DHT22;5104;50.720;7.044;2022-12-11T12:42:27;3.20;91.90
10129;DHT22;5104;50.720;7.044;2022-12-11T12:44:58;3.40;91.00
10129;DHT22;5104;50.720;7.044;2022-12-11T12:47:27;3.40;93.90
10129;DHT22;5104;50.720;7.044;2022-12-11T12:49:58;3.30;92.10
10129;DHT22;5104;50.720;7.044;2022-12-11T12:52:30;3.30;91.40
10129;DHT22;5104;50.720;7.044;2022-12-11T12:55:00;3.20;94.80
10129;DHT22;5104;50.720;7.044;2022-12-11T12:57:45;3.20;90.10
10129;DHT22;5104;50.720;7.044;2022-12-11T13:00:28;3.30;90.80
10129;DHT22;5104;50.720;7.044;2022-12-11T13:02:57;2.90;94.30
10129;DHT22;5104;50.720;7.044;2022-12-11T13:05:27;2.90;95.10
10129;DHT22;5104;50.720;7.044;2022-12-11T13:07:57;2.80;92.70
10129;DHT22;5104;50.720;7.044;2022-12-11T13:10:27;2.90;94.60
10129;DHT22;5104;50.720;7.044;2022-12-11T13:12:56;3.00;93.40
10129;DHT22;5104;50.720;7.044;2022-12-11T13:15:25;3.10;93.00
10129;DHT22;5104;50.720;7.044;2022-12-11T13:17:53;3.20;90.70
10129;DHT22;5104;50.720;7.044;2022-12-11T13:20:22;3.30;90.20
10129;DHT22;5104;50.720;7.044;2022-12-11T13:22:54;3.70;85.60
10129;DHT22;5104;50.720;7.044;2022-12-11T13:25:27;4.00;82.50
10129;DHT22;5104;50.720;7.044;2022-12-11T13:28:05;3.80;75.30
10129;DHT22;5104;50.720;7.044;2022-12-11T13:30:32;3.60;67.50
10129;DHT22;5104;50.720;7.044;2022-12-11T13:33:02;3.30;76.30
10129;DHT22;5104;50.720;7.044;2022-12-11T13:35:31;3.20;77.70
10129;DHT22;5104;50.720;7.044;2022-12-11T13:38:04;2.90;84.30
10129;DHT22;5104;50.720;7.044;2022-12-11T13:40:37;2.90;86.50
10129;DHT22;5104;50.720;7.044;2022-12-11T13:43:08;3.00;90.00
10129;DHT22;5104;50.720;7.044;2022-12-11T13:45:45;3.00;92.10
10129;DHT22;5104;50.720;7.044;2022-12-11T13:48:18;2.90;90.60
10129;DHT22;5104;50.720;7.044;2022-12-11T13:50:47;2.90;92.80
10129;DHT22;5104;50.720;7.044;2022-12-11T13:53:17;3.10;92.10
10129;DHT22;5104;50.720;7.044;2022-12-11T13:55:45;3.20;93.40
10129;DHT22;5104;50.720;7.044;2022-12-11T13:58:17;3.20;91.50
10129;DHT22;5104;50.720;7.044;2022-12-11T14:00:58;3.20;89.60
10129;DHT22;5104;50.720;7.044;2022-12-11T14:03:26;3.10;90.10
10129;DHT22;5104;50.720;7.044;2022-12-11T14:05:53;3.00;96.00
10129;DHT22;5104;50.720;7.044;2022-12-11T14:08:28;2.90;93.00
10129;DHT22;5104;50.720;7.044;2022-12-11T14:10:57;2.70;94.70
10129;DHT22;5104;50.720;7.044;2022-12-11T14:13:26;2.50;99.90
10129;DHT22;5104;50.720;7.044;2022-12-11T14:15:56;2.40;98.60
10129;DHT22;5104;50.720;7.044;2022-12-11T14:18:26;2.40;98.90
10129;DHT22;5104;50.720;7.044;2022-12-11T14:20:56;2.40;98.20
10129;DHT22;5104;50.720;7.044;2022-12-11T14:23:26;2.30;99.90
10129;DHT22;5104;50.720;7.044;2022-12-11T14:25:54;2.30;99.90
10129;DHT22;5104;50.720;7.044;2022-12-11T14:28:23;2.40;99.90
10129;DHT22;5104;50.720;7.044;2022-12-11T14:30:54;2.30;99.90
10129;DHT22;5104;50.720;7.044;2022-12-11T14:33:24;2.30;99.90
10129;DHT22;5104;50.720;7.044;2022-12-11T14:35:53;2.40;99.90
10129;DHT22;5104;50.720;7.044;2022-12-11T14:38:24;2.40;99.90
10129;DHT22;5104;50.720;7.044;2022-12-11T14:40:55;2.50;99.90
10129;DHT22;5104;50.720;7.044;2022-12-11T14:43:27;2.60;99.90
10129;DHT22;5104;50.720;7.044;2022-12-11T14:45:58;2.60;99.90
10129;DHT22;5104;50.720;7.044;2022-12-11T14:48:29;2.50;99.90
10129;DHT22;5104;50.720;7.044;2022-12-11T14:51:02;2.50;99.90
10129;DHT22;5104;50.720;7.044;2022-12-11T14:53:34;2.50;98.90
10129;DHT22;5104;50.720;7.044;2022-12-11T14:56:04;2.40;99.90
10129;DHT22;5104;50.720;7.044;2022-12-11T14:58:37;2.50;99.90
10129;DHT22;5104;50.720;7.044;2022-12-11T15:01:19;2.50;99.90
10129;DHT22;5104;50.720;7.044;2022-12-11T15:03:46;2.40;99.90
10129;DHT22;5104;50.720;7.044;2022-12-11T15:06:23;2.30;99.90
10129;DHT22;5104;50.720;7.044;2022-12-11T15:08:52;2.20;99.90
10129;DHT22;5104;50.720;7.044;2022-12-11T15:11:21;2.10;99.90
10129;DHT22;5104;50.720;7.044;2022-12-11T15:13:53;2.10;99.90
10129;DHT22;5104;50.720;7.044;2022-12-11T15:16:23;2.10;99.90
10129;DHT22;5104;50.720;7.044;2022-12-11T15:18:52;2.20;99.90
10129;DHT22;5104;50.720;7.044;2022-12-11T15:21:27;2.30;99.90
10129;DHT22;5104;50.720;7.044;2022-12-11T15:23:57;2.40;99.90
10129;DHT22;5104;50.720;7.044;2022-12-11T15:26:32;2.40;99.90
10129;DHT22;5104;50.720;7.044;2022-12-11T15:29:01;2.40;99.90
10129;DHT22;5104;50.720;7.044;2022-12-11T15:31:30;2.30;99.90
10129;DHT22;5104;50.720;7.044;2022-12-11T15:33:58;2.30;99.90
10129;DHT22;5104;50.720;7.044;2022-12-11T15:36:29;2.20;99.90
10129;DHT22;5104;50.720;7.044;2022-12-11T15:38:58;2.20;99.90
10129;DHT22;5104;50.720;7.044;2022-12-11T15:41:25;2.10;99.90
10129;DHT22;5104;50.720;7.044;2022-12-11T15:43:54;2.10;99.90
10129;DHT22;5104;50.720;7.044;2022-12-11T15:46:23;2.20;99.90
10129;DHT22;5104;50.720;7.044;2022-12-11T15:48:50;2.20;99.90
10129;DHT22;5104;50.720;7.044;2022-12-11T15:51:16;2.20;99.90
10129;DHT22;5104;50.720;7.044;2022-12-11T15:53:43;2.30;99.90
10129;DHT22;5104;50.720;7.044;2022-12-11T15:56:13;2.30;99.90
10129;DHT22;5104;50.720;7.044;2022-12-11T15:58:42;2.20;99.90
10129;DHT22;5104;50.720;7.044;2022-12-11T16:01:10;2.10;99.90
10129;DHT22;5104;50.720;7.044;2022-12-11T16:03:37;2.10;99.90
10129;DHT22;5104;50.720;7.044;2022-12-11T16:06:04;2.20;99.90
10129;DHT22;5104;50.720;7.044;2022-12-11T16:08:31;2.10;99.90
10129;DHT22;5104;50.720;7.044;2022-12-11T16:10:58;2.20;99.90
10129;DHT22;5104;50.720;7.044;2022-12-11T16:13:26;2.20;99.90
10129;DHT22;5104;50.720;7.044;2022-12-11T16:15:53;2.20;99.90
10129;DHT22;5104;50.720;7.044;2022-12-11T16:18:21;2.20;99.90
10129;DHT22;5104;50.720;7.044;2022-12-11T16:20:50;2.20;99.90
10129;DHT22;5104;50.720;7.044;2022-12-11T16:23:17;2.20;99.90